Terminal Aerodrome Forecast
Issued by NWS Jacksonville, FL

Home | Current Version | Previous Version | Text Only | Print | Product List | Glossary On
Versions: 1 2 3 4 5 6 7 8 9 10 11 12 13 14 15 16 17 18 19 20
000
FTUS42 KJAX 262326
TAFGNV
TAF
KGNV 262326Z 2700/2724 25008KT P6SM SCT080 BKN250
     FM271000 26005KT P6SM SCT025 BKN050
     FM271600 27006KT P6SM SCT050 BKN250=

USA.gov is the U.S. government's official web portal to all federal, state and local government web resources and services.